Bursa Yeni?ehir Airport


Codes: LTBR/YEI
Name: Bursa Yeni?ehir Airport
City: Bursa
Country: Turkey
Elevation: 764 ft.
Wikipedia:

Photos at Bursa Yeni?ehir Airport


   Photos courtesy of SpottingLog. You can add your own sightings and photos by signing up for a free trial today.



No photos found.

Weather at Bursa Yeni?ehir Airport


Time (UTC)DescriptionTempratureWindCloud coverageVisibilityPressureHumidity
25-Jun-2024 15:00Clear Sky33°C20 mph, N0%10000m1010hPa28%
25-Jun-2024 18:00Clear Sky25°C2 mph, N0%10000m1012hPa54%
25-Jun-2024 21:00Clear Sky17°C0 mph, E0%10000m1014hPa85%
26-Jun-2024 00:00Clear Sky16°C0 mph, NE0%10000m1015hPa88%
26-Jun-2024 03:00Clear Sky15°C0 mph, SE0%10000m1015hPa89%
26-Jun-2024 06:00Clear Sky23°C4 mph, NE0%10000m1015hPa50%
26-Jun-2024 09:00Clear Sky29°C9 mph, N0%10000m1014hPa32%
26-Jun-2024 12:00Clear Sky32°C18 mph, N0%10000m1012hPa24%
26-Jun-2024 15:00Clear Sky29°C18 mph, N0%10000m1012hPa35%
26-Jun-2024 18:00Clear Sky20°C4 mph, N0%10000m1013hPa67%
26-Jun-2024 21:00Clear Sky16°C2 mph, N0%10000m1014hPa84%
27-Jun-2024 00:00Clear Sky15°C2 mph, SE0%10000m1014hPa88%
27-Jun-2024 03:00Clear Sky14°C2 mph, SE0%10000m1013hPa90%
27-Jun-2024 06:00Clear Sky23°C4 mph, NE0%10000m1012hPa52%
27-Jun-2024 09:00Clear Sky31°C9 mph, N0%10000m1010hPa29%
27-Jun-2024 12:00Clear Sky33°C13 mph, N0%10000m1009hPa19%
27-Jun-2024 15:00Clear Sky30°C16 mph, N0%10000m1008hPa29%
27-Jun-2024 18:00Clear Sky20°C2 mph, N0%10000m1010hPa51%
27-Jun-2024 21:00Clear Sky16°C2 mph, NE0%10000m1011hPa70%
28-Jun-2024 00:00Clear Sky14°C2 mph, N0%10000m1011hPa81%
28-Jun-2024 03:00Clear Sky14°C0 mph, N0%10000m1010hPa83%
28-Jun-2024 06:00Clear Sky23°C2 mph, N0%10000m1010hPa47%
28-Jun-2024 09:00Clear Sky30°C9 mph, N0%10000m1009hPa27%
28-Jun-2024 12:00Clear Sky33°C16 mph, N0%10000m1007hPa28%
28-Jun-2024 15:00Clear Sky30°C16 mph, N0%10000m1007hPa28%
28-Jun-2024 18:00Clear Sky21°C7 mph, N0%10000m1010hPa57%
28-Jun-2024 21:00Clear Sky16°C2 mph, N1%10000m1012hPa82%
29-Jun-2024 00:00Clear Sky15°C0 mph, SE0%10000m1012hPa87%
29-Jun-2024 03:00Clear Sky15°C2 mph, S0%10000m1012hPa89%
29-Jun-2024 06:00Clear Sky23°C4 mph, NE0%10000m1013hPa58%
29-Jun-2024 09:00Few Clouds30°C9 mph, N15%10000m1011hPa29%
29-Jun-2024 12:00Few Clouds32°C22 mph, N12%10000m1010hPa24%
29-Jun-2024 15:00Clear Sky28°C18 mph, N0%10000m1010hPa37%
29-Jun-2024 18:00Clear Sky20°C4 mph, N0%10000m1012hPa71%
29-Jun-2024 21:00Clear Sky17°C0 mph, SW0%10000m1013hPa86%
30-Jun-2024 00:00Clear Sky16°C2 mph, E0%10000m1012hPa90%
30-Jun-2024 03:00Clear Sky15°C2 mph, SE0%10000m1013hPa92%
30-Jun-2024 06:00Clear Sky23°C4 mph, N0%10000m1013hPa57%
30-Jun-2024 09:00Clear Sky29°C9 mph, N0%10000m1011hPa33%
30-Jun-2024 12:00Clear Sky33°C18 mph, N0%10000m1009hPa22%